Terminal Aerodrome Forecast
Issued by NWS Aberdeen, SD

Home | Current Version | Previous Version | Text Only | Print | Product List | Glossary On
Versions: 1 2 3 4 5 6 7 8 9 10 11 12 13 14 15 16 17 18 19 20 21 22 23 24 25 26 27 28 29 30 31 32 33 34
000
FTUS43 KABR 211121
TAFABR
TAF
KABR 211121Z 2112/2212 34005KT P6SM OVC110
     FM211600 01007KT P6SM OVC045
     FM220000 02009KT P6SM OVC030
     FM220200 02009KT P6SM OVC015
     FM220900 01010KT P6SM BKN008=

USA.gov is the U.S. government's official web portal to all federal, state and local government web resources and services.